Terminal Aerodrome Forecast
Issued by NWS

Home | Current Version | Previous Version | Text Only | Print | Product List | Glossary On
Versions: 1 2 3 4 5 6 7 8 9 10 11 12 13 14 15 16 17 18 19 20 21 22 23 24 25 26 27 28 29 30
162
FTUS41 KOKX 301932 AAA
TAFHPN
TAF AMD
KHPN 301932Z 3020/0118 13008KT P6SM BKN040
     FM010000 12010KT P6SM VCSH SCT015 OVC035
     FM010200 12008KT 6SM BR FEW008 OVC012
     FM010400 11005KT 4SM BR FEW003 OVC006
     FM010600 VRB03KT 2SM -DZ BR OVC004
     FM010900 VRB02KT 1/2SM -DZ FG OVC003
     FM011400 18008KT 5SM BR BKN020
      AMD NOT SKED=

USA.gov is the U.S. government's official web portal to all federal, state and local government web resources and services.